logo
App data

Sam & Max 103: The Mole, the Mob and the Meatball

Sam & Max Episode 3 - The Mole, The Mob, and The Meatball - The commissioner is looking into an underground operation at the Ted E. Bear Mafia-Free Playland and Casino, but the mole he sent in has suddenly gone quiet. To find the mole, Sam & Max must infiltrate the operation and become members of the Toy Mafia themselves.
Store | Hub | SteamDB | Site
Developer: Telltale Games Publisher: Skunkape Games
Genre: Action, Adventure
Languages: English, French, German, Italian
Tags: Adventure (37), Action (32), Point & Click (10), Comedy (10), America (7), Cult Classic (6), Story Rich (6), Great Soundtrack (5), Retro (5), 2D (5), 1990's (5)
Category: Single-player
Release date: Jan 25, 2007
N/A
Old userscore: 85% Owners: 0 .. 20,000
Followers: 184
Peak concurrent players yesterday: 2
Playtime total: 03:51 (average) 03:54 (median)

Steam Spy is still in beta, so expect major bugs.

Owners data:

Access restricted.

This feature is only available to users with special access rights. Sorry.

If you want to proceed, you need to register or log in first and then back Steam Spy on Patreon. Look for Indie or Pro pledge.

Don't forget to use the same email as on Steam Spy!

If you've recently backed Steam Spy on Patreon, please note, that it might take around 15 minutes for your access rights to sync. In most cases you'll need to re-login on Steam Spy too.

Audience in 2 weeks:

Access restricted.

This feature is only available to users with special access rights. Sorry.

If you want to proceed, you need to register or log in first and then back Steam Spy on Patreon. Look for Indie or Pro pledge.

Don't forget to use the same email as on Steam Spy!

If you've recently backed Steam Spy on Patreon, please note, that it might take around 15 minutes for your access rights to sync. In most cases you'll need to re-login on Steam Spy too.

Peak daily concurrent players:

CCU data courtesy of SteamDB. Used with permission.

Hourly concurrent players:

Followers over time

Access restricted.

This feature is only available to users with special access rights. Sorry.

If you want to proceed, you need to register or log in first and then back Steam Spy on Patreon. Look for Indie or Pro pledge.

Don't forget to use the same email as on Steam Spy!

If you've recently backed Steam Spy on Patreon, please note, that it might take around 15 minutes for your access rights to sync. In most cases you'll need to re-login on Steam Spy too.

Views for top 50 videos on YouTube for this game:

Games similar to this one:

# Game Release date
Price
Score rank
(Userscore / Metascore)
Owners
Players
Playtime (Median)
1 Hush Jul 29, 2015 $9.99N/A (N/A)0 .. 20,0000%00:00 (00:00)
2 Ninjahtic Mind Tricks Jul 16, 2015 $1.99N/A (N/A)20,000 .. 50,0000%00:00 (00:00)
3 Zombie Killtime Aug 4, 2015 $1.99N/A (N/A)0 .. 20,0000%00:00 (00:00)
4 Rubber and Lead Sep 4, 2015 $4.99N/A (N/A)50,000 .. 100,0000%00:00 (00:00)
5 Lost in Paradise Aug 20, 2015 $2.99N/A (N/A)20,000 .. 50,0000%00:00 (00:00)
6 Weapon of Choice Sep 23, 2015 $4.99N/A (N/A)0 .. 20,0000%00:00 (00:00)
7 Dandy: Or a Brief Glimpse Into the Life of the Candy Alchemist Aug 4, 2015 $9.99N/A (N/A)0 .. 20,0000%00:00 (00:00)
8 Tiki Man Jun 5, 2015 $2.99N/A (N/A)50,000 .. 100,0000%00:00 (00:00)
9 Kidnapped Aug 4, 2015 $2.99N/A (N/A)100,000 .. 200,0000%00:00 (00:00)
10 Biodrone Battle Jul 16, 2015 $1.99N/A (N/A)50,000 .. 100,0000%00:00 (00:00)
11 Cross of the Dutchman Sep 10, 2015 $8.99N/A (N/A/59%)20,000 .. 50,0000%00:00 (00:00)
12 Chicken Invaders 3 Jun 8, 2015 $4.99N/A (N/A)0 .. 20,0000%00:00 (00:00)
13 Dead But Alive! Southern England Oct 2, 2015 $14.99N/A (N/A)0 .. 20,0000%00:00 (00:00)
14 Tcheco in the Castle of Lucio Jun 22, 2015 $0.49N/A (N/A)50,000 .. 100,0000%00:00 (00:00)
15 Ninjahtic Jul 6, 2015 $1.99N/A (N/A)0 .. 20,0000%00:00 (00:00)
16 Rack N Ruin Sep 1, 2015 $9.99N/A (N/A)0 .. 20,0000%00:00 (00:00)
17 FIVE: Guardians of David Nov 24, 2015 $9.99N/A (N/A/66%)20,000 .. 50,0000%00:00 (00:00)
18 Major Mayhem Feb 24, 2014 $4.99N/A (N/A)20,000 .. 50,0000%00:00 (00:00)
19 8-Bit Commando Jun 2, 2014 $3.99N/A (N/A)100,000 .. 200,0000%00:00 (00:00)
20 Platformines Mar 28, 2014 $9.99N/A (N/A/67%)50,000 .. 100,0000%00:00 (00:00)
21 Rex Rocket Aug 5, 2014 $4.99N/A (N/A)20,000 .. 50,0000%00:00 (00:00)
22 The Dishwasher: Vampire Smile May 12, 2017 $9.99N/A (N/A)20,000 .. 50,0000%00:00 (00:00)
23 Blood Knights Nov 13, 2013 $9.99N/A (N/A)50,000 .. 100,0000%00:00 (00:00)
24 Shadow Blade: Reload Aug 10, 2015 $9.99N/A (N/A/70%)20,000 .. 50,0000%00:00 (00:00)
25 Wooden Sen'SeY Dec 5, 2013 $9.99N/A (N/A)20,000 .. 50,0000%00:00 (00:00)
26 Devil's Dare 悪魔の挑戦 Oct 21, 2014 $12.99N/A (N/A)20,000 .. 50,0000%00:00 (00:00)
27 Marc Eckō's Getting Up: Contents Under Pressure Dec 13, 2013 $14.99N/A (N/A/69%)50,000 .. 100,0000%00:00 (00:00)
28 BloodRayne Betrayal Apr 30, 2014 $9.99N/A (N/A)100,000 .. 200,0000%00:00 (00:00)
29 Iron Soul Feb 26, 2014 $4.99N/A (N/A)0 .. 20,0000%00:00 (00:00)
30 Woolfe - The Red Hood Diaries Mar 17, 2015 $9.99N/A (N/A/55%)100,000 .. 200,0000%00:00 (00:00)
31 Last Knight: Rogue Rider Edition Oct 3, 2014 $7.99N/A (N/A)20,000 .. 50,0000%00:00 (00:00)
32 Incoming Forces Sep 24, 2002 $2.99N/A (N/A/67%)100,000 .. 200,0000%00:00 (00:00)
33 Wyv and Keep: The Temple of the Lost Idol Aug 8, 2014 $14.99N/A (N/A)0 .. 20,0000%00:00 (00:00)
34 Enemy Mind Jun 6, 2014 $9.99N/A (N/A)100,000 .. 200,0000%00:00 (00:00)
35 Lethe - Episode One Aug 1, 2016 $14.99N/A (N/A)0 .. 20,0000%00:00 (00:00)
36 Dinocide Jan 21, 2016 $9.99N/A (N/A/51%)20,000 .. 50,0000%00:00 (00:00)
37 Hard Reset Redux Jun 3, 2016 $19.99N/A (N/A/73%)50,000 .. 100,0000%00:00 (00:00)
38 Seraph Sep 20, 2016 $12.99N/A (N/A/80%)50,000 .. 100,0000%00:00 (00:00)
39 Knight Adventure Oct 15, 2015 $0.99N/A (N/A)20,000 .. 50,0000%00:00 (00:00)
40 Toy Odyssey: The Lost and Found Sep 20, 2016 $14.99N/A (N/A/66%)20,000 .. 50,0000%00:00 (00:00)
41 Angry Video Game Nerd II: ASSimilation Mar 29, 2016 $9.99N/A (N/A)20,000 .. 50,0000%00:00 (00:00)
42 Miracle Fly Oct 26, 2015 $7.99N/A (N/A)0 .. 20,0000%00:00 (00:00)
43 Legend (1994) Nov 10, 2015 $4.99N/A (N/A)0 .. 20,0000%00:00 (00:00)
44 Ittle Dew 2+ Nov 15, 2016 $14.99N/A (N/A)20,000 .. 50,0000%00:00 (00:00)
45 Nightmare on Azathoth Oct 30, 2015 $0.99N/A (N/A)0 .. 20,0000%00:00 (00:00)
46 Ace of Protectors Jun 27, 2016 $1.99N/A (N/A)20,000 .. 50,0000%00:00 (00:00)
47 Gurgamoth Feb 16, 2016 $9.99N/A (N/A)0 .. 20,0000%00:00 (00:00)
48 The Juicer Sep 11, 2015 $0.99N/A (N/A)50,000 .. 100,0000%00:00 (00:00)
49 Vector Strain Dec 9, 2015 $4.99N/A (N/A)20,000 .. 50,0000%00:00 (00:00)
50 Zero Reflex : Black Eye Edition Nov 4, 2015 $3.99N/A (N/A)20,000 .. 50,0000%00:00 (00:00)
51 The Legend of Dark Witch Dec 1, 2015 $4.99N/A (N/A)20,000 .. 50,0000%00:00 (00:00)
52 Hero of Many Sep 15, 2014 $6.99N/A (N/A)20,000 .. 50,0000%00:00 (00:00)
53 Will Fight for Food: Super Actual Sellout: Game of the Hour Apr 22, 2015 $4.99N/A (N/A)0 .. 20,0000%00:00 (00:00)
54 Overruled! Sep 15, 2015 $12.99N/A (N/A)20,000 .. 50,0000%00:00 (00:00)
55 Nux Dec 26, 2006 $6.99N/A (N/A)100,000 .. 200,0000%00:00 (00:00)
56 Knightmare Tower Jun 16, 2014 $3.99N/A (N/A)0 .. 20,0000%00:00 (00:00)
57 Strike Suit Zero: Director's Cut Apr 8, 2014 $19.99N/A (N/A)50,000 .. 100,0000%00:00 (00:00)
58 GET EVEN Jun 20, 2017 $29.99N/A (N/A/75%)20,000 .. 50,0000%00:00 (00:00)
59 Collapse Sep 25, 2008 $19.99N/A (N/A)50,000 .. 100,0000%00:00 (00:00)
60 Psichodelya Aug 8, 2014 N/AN/A (N/A)50,000 .. 100,0000%00:00 (00:00)
61 LARA CROFT AND THE TEMPLE OF OSIRIS Dec 8, 2014 $19.99N/A (N/A/73%)200,000 .. 500,0000%00:00 (00:00)
62 Adventures of Pip Jun 4, 2015 $9.99N/A (N/A)20,000 .. 50,0000%00:00 (00:00)
63 Knight Squad Nov 16, 2015 $14.99N/A (N/A)50,000 .. 100,0000%00:00 (00:00)
64 Blue Estate The Game Apr 8, 2015 $12.99N/A (N/A/59%)50,000 .. 100,0000%00:00 (00:00)
65 MIND: Path to Thalamus Enhanced Edition Aug 5, 2014 $11.99N/A (N/A/75%)100,000 .. 200,0000%00:00 (00:00)
66 Heavy Fire: Afghanistan Aug 15, 2014 $2.99N/A (N/A)50,000 .. 100,0000%00:00 (00:00)
67 Viktor Jun 13, 2014 $0.79N/A (N/A)20,000 .. 50,0000%00:00 (00:00)
68 Overlord: Fellowship of Evil Oct 19, 2015 $9.99N/A (N/A)50,000 .. 100,0000%00:00 (00:00)
69 Ruckus Ridge VR Party Apr 5, 2016 $9.99N/A (N/A)0 .. 20,0000%00:00 (00:00)
70 Legends of the Universe - StarCore Jul 25, 2016 $1.99N/A (N/A)0 .. 20,0000%00:00 (00:00)
71 Scapeland Mar 31, 2016 $3.99N/A (N/A)0 .. 20,0000%00:00 (00:00)
72 Smithy Jun 3, 2016 $0.99N/A (N/A)20,000 .. 50,0000%00:00 (00:00)
73 Onechanbara Z2: Chaos Jun 2, 2016 $39.99N/A (N/A)20,000 .. 50,0000%00:00 (00:00)
74 Bubsy Two-Fur Dec 17, 2015 $4.99N/A (N/A)20,000 .. 50,0000%00:00 (00:00)
75 Chicken Invaders 2 Mar 4, 2016 $3.99N/A (N/A)0 .. 20,0000%00:00 (00:00)
76 Super Helmets on Fire DX Ultra Edition Plus Alpha Feb 15, 2016 FreeN/A (N/A)0 .. 20,0000%00:00 (00:00)
77 Ace of Seafood Apr 8, 2016 $11.99N/A (N/A)50,000 .. 100,0000%00:00 (00:00)
78 A Blind Legend Apr 7, 2016 $6.99N/A (N/A)20,000 .. 50,0000%00:00 (00:00)
79 Zombillie Apr 29, 2016 $0.49N/A (N/A)50,000 .. 100,0000%00:00 (00:00)
80 Story Of the Survivor Feb 16, 2016 $4.99N/A (N/A)50,000 .. 100,0000%00:00 (00:00)
81 Roll'd Apr 14, 2016 $0.49N/A (N/A)50,000 .. 100,0000%00:00 (00:00)
82 Pharaoh Rebirth+ Mar 17, 2016 $9.99N/A (N/A)0 .. 20,0000%00:00 (00:00)
83 Rocketbirds 2 Evolution Jan 26, 2017 $9.99N/A (N/A)20,000 .. 50,0000%00:00 (00:00)
84 Tokyo Babel Mar 31, 2016 $34.99N/A (N/A)0 .. 20,0000%00:00 (00:00)
85 IrreVRsible May 24, 2016 $1.99N/A (N/A)0 .. 20,0000%00:00 (00:00)
86 Deadlings: Rotten Edition Nov 11, 2014 $3.99N/A (N/A)50,000 .. 100,0000%00:00 (00:00)
87 4089: Ghost Within Jan 9, 2015 $5.99N/A (N/A)0 .. 20,0000%00:00 (00:00)
88 Wickland Feb 6, 2015 $0.99N/A (N/A)50,000 .. 100,0000%00:00 (00:00)
89 Robotex Nov 19, 2014 $4.99N/A (N/A)200,000 .. 500,0000%00:00 (00:00)
90 Gurumin: A Monstrous Adventure Mar 30, 2015 $9.99N/A (N/A)50,000 .. 100,0000%00:00 (00:00)
91 Onikira - Demon Killer Aug 27, 2015 $13.99N/A (N/A)50,000 .. 100,0000%00:00 (00:00)
92 Gemini: Heroes Reborn Jan 18, 2016 $2.99N/A (N/A/54%)50,000 .. 100,0000%00:00 (00:00)
93 Spirits of Xanadu Mar 26, 2015 $4.99N/A (N/A)20,000 .. 50,0000%00:00 (00:00)
94 The Warlock of Firetop Mountain Aug 30, 2016 $19.99N/A (N/A/70%)50,000 .. 100,0000%00:00 (00:00)
95 Jet Gunner Aug 4, 2014 $0.99N/A (N/A)200,000 .. 500,0000%00:00 (00:00)
96 Clash of Puppets Dec 16, 2014 $4.99N/A (N/A)0 .. 20,0000%00:00 (00:00)
97 A.R.E.S. Extinction Agenda EX Oct 3, 2014 $9.99N/A (N/A)0 .. 20,0000%00:00 (00:00)
98 Viking Squad Oct 4, 2016 $14.99N/A (N/A)20,000 .. 50,0000%00:00 (00:00)
99 Daedalus - No Escape Oct 28, 2014 $1.99N/A (N/A)20,000 .. 50,0000%00:00 (00:00)
100 FEIST Jul 23, 2015 $9.99N/A (N/A/65%)20,000 .. 50,0000%00:00 (00:00)
101 Gold Rush! Anniversary Nov 7, 2014 $5.99N/A (N/A)0 .. 20,0000%00:00 (00:00)
102 Near Death Aug 2, 2016 $7.99N/A (N/A/70%)20,000 .. 50,0000%00:00 (00:00)
103 BloodRayne 2 (Legacy) Aug 2, 2005 N/AN/A (N/A/67%)50,000 .. 100,0000%00:00 (00:00)
104 Zeno Clash Apr 21, 2009 $9.99N/A (N/A/77%)200,000 .. 500,0000%00:00 (00:00)
105 Rogue Trooper May 23, 2006 $9.99N/A (N/A/69%)50,000 .. 100,0000%00:00 (00:00)
106 Earth Defense Force: Insect Armageddon Dec 14, 2011 $9.99N/A (N/A/69%)50,000 .. 100,0000%00:00 (00:00)
107 Sam & Max 102: Situation: Comedy Dec 20, 2006 N/AN/A (N/A)0 .. 20,0000%00:00 (00:00)
108 SiN Episodes: Emergence May 10, 2006 $9.99N/A (N/A/75%)100,000 .. 200,0000%00:00 (00:00)
109 Sam & Max 105: Reality 2.0 Mar 29, 2007 N/AN/A (N/A)0 .. 20,0000%00:00 (00:00)
110 Bloody Good Time Oct 29, 2010 $4.99N/A (N/A/73%)100,000 .. 200,0000%00:00 (00:00)
111 Sam & Max 106: Bright Side of the Moon Apr 26, 2007 N/AN/A (N/A)0 .. 20,0000%00:00 (00:00)
112 Call of Duty: United Offensive Oct 13, 2006 $19.99N/A (N/A/87%)200,000 .. 500,0000%00:00 (00:00)
113 Postal III Dec 21, 2011 $11.99N/A (N/A/24%)50,000 .. 100,0000%00:00 (00:00)
114 ARMA: Combat Operations May 8, 2007 $7.99N/A (N/A/74%)50,000 .. 100,0000%00:00 (00:00)
115 Penguins Arena: Sedna's World Dec 18, 2008 $5.99N/A (N/A)100,000 .. 200,0000%00:00 (00:00)
116 Advent Rising Aug 9, 2005 $9.99N/A (N/A/70%)50,000 .. 100,0000%00:00 (00:00)
117 Darkstar One Aug 14, 2006 $1.99N/A (N/A/71%)100,000 .. 200,0000%00:00 (00:00)
118 BloodRayne (Legacy) Sep 9, 2003 N/AN/A (N/A/65%)50,000 .. 100,0000%00:00 (00:00)
119 DeathSpank: Thongs of Virtue Nov 30, 2010 $14.99N/A (N/A/78%)50,000 .. 100,0000%00:00 (00:00)
120 What The Heck, Dude? Nov 3, 2016 $0.99N/A (N/A)100,000 .. 200,0000%00:00 (00:00)
121 Handsome Mr. Frog Aug 8, 2016 $0.99N/A (N/A)0 .. 20,0000%00:00 (00:00)
122 rooMaze Mar 3, 2017 $1.99N/A (N/A)20,000 .. 50,0000%00:00 (00:00)
123 Zombo Buster Rising Oct 2, 2016 $1.99N/A (N/A)20,000 .. 50,0000%00:00 (00:00)
124 State of Anarchy: Master of Mayhem Mar 31, 2017 $2.99N/A (N/A)100,000 .. 200,0000%00:00 (00:00)
125 Toadled Sep 22, 2016 $0.99N/A (N/A)50,000 .. 100,0000%00:00 (00:00)
126 Bot Vice Jul 11, 2016 $9.99N/A (N/A)50,000 .. 100,0000%00:00 (00:00)
127 Death's Hangover Jan 20, 2017 $4.99N/A (N/A)20,000 .. 50,0000%00:00 (00:00)
128 Zombie Apocalypse: Escape The Undead City Nov 25, 2013 $1.99N/A (N/A)0 .. 20,0000%00:00 (00:00)
129 Asura: Vengeance Edition Apr 13, 2017 $9.99N/A (N/A)20,000 .. 50,0000%00:00 (00:00)
130 FIVE: Champions of Canaan Sep 27, 2016 $3.99N/A (N/A)20,000 .. 50,0000%00:00 (00:00)
131 Double Dragon IV Jan 30, 2017 $6.99N/A (N/A/50%)100,000 .. 200,0000%00:00 (00:00)
132 Intrude Aug 1, 2016 $3.99N/A (N/A)20,000 .. 50,0000%00:00 (00:00)
133 SPINGUN Nov 11, 2016 $1.99N/A (N/A)20,000 .. 50,0000%00:00 (00:00)
134 I Am The Hero Jan 16, 2017 $9.99N/A (N/A)50,000 .. 100,0000%00:00 (00:00)
135 NightZ Feb 14, 2017 $0.99N/A (N/A)0 .. 20,0000%00:00 (00:00)
136 Extravaganza Rising Jul 21, 2016 N/AN/A (N/A)50,000 .. 100,0000%00:00 (00:00)
137 I, Gladiator Apr 7, 2015 $7.99N/A (N/A)0 .. 20,0000%00:00 (00:00)
138 The Asskickers-Steam Edition Feb 6, 2015 $9.99N/A (N/A)0 .. 20,0000%00:00 (00:00)
139 Armed with Wings: Rearmed Jun 1, 2017 $9.99N/A (N/A)20,000 .. 50,0000%00:00 (00:00)
140 Burstfire Sep 24, 2015 N/AN/A (N/A)50,000 .. 100,0000%00:00 (00:00)
141 Stay Dead Evolution Feb 4, 2015 $5.99N/A (N/A)20,000 .. 50,0000%00:00 (00:00)
142 PixelJunk Shooter Ultimate Oct 21, 2015 $9.99N/A (N/A)50,000 .. 100,0000%00:00 (00:00)
143 Super Cyborg Jul 8, 2015 $4.99N/A (N/A)20,000 .. 50,0000%00:00 (00:00)
144 Out There: Ω Edition Apr 2, 2015 $14.99N/A (N/A)100,000 .. 200,0000%00:00 (00:00)
145 Dustoff Heli Rescue Mar 6, 2015 $3.99N/A (N/A)20,000 .. 50,0000%00:00 (00:00)
146 Bet On Soldier Dec 5, 2014 $7.99N/A (N/A)100,000 .. 200,0000%00:00 (00:00)
147 BiT Evolution Jun 9, 2015 $9.99N/A (N/A)50,000 .. 100,0000%00:00 (00:00)
148 Outcast 1.1 Dec 18, 2014 $5.99N/A (N/A)50,000 .. 100,0000%00:00 (00:00)
149 Tiamat X May 29, 2015 $1.99N/A (N/A)50,000 .. 100,0000%00:00 (00:00)
150 Velocity 2X Aug 19, 2015 $19.99N/A (N/A)50,000 .. 100,0000%00:00 (00:00)
151 David. Mar 14, 2014 $1.99N/A (N/A)100,000 .. 200,0000%00:00 (00:00)
152 Death Ray Manta SE Sep 17, 2015 $1.99N/A (N/A)20,000 .. 50,0000%00:00 (00:00)
153 The Bluecoats: North vs South (2012) Feb 2, 2015 N/AN/A (N/A)200,000 .. 500,0000%00:00 (00:00)
154 Western 1849 Reloaded Feb 10, 2017 $3.99N/A (N/A)0 .. 20,0000%00:00 (00:00)
155 Mini Ghost Apr 28, 2017 $1.99N/A (N/A)0 .. 20,0000%00:00 (00:00)
156 Tank Destroyer Mar 9, 2017 $0.99N/A (N/A)50,000 .. 100,0000%00:00 (00:00)
157 iStorm Mar 16, 2017 FreeN/A (N/A)0 .. 20,0000%00:00 (00:00)
158 Battle Bruise Apr 22, 2017 $0.99N/A (N/A)20,000 .. 50,0000%00:00 (00:00)
159 Assassin’s Creed Chronicles: Russia Feb 9, 2016 $2.99N/A (N/A)50,000 .. 100,0000%00:00 (00:00)
160 Jim Power -The Lost Dimension Dec 10, 1993 $1.74N/A (N/A)0 .. 20,0000%00:00 (00:00)
161 Assassin’s Creed Chronicles: India Jan 12, 2016 $2.99N/A (N/A)50,000 .. 100,0000%00:00 (00:00)
162 Spooky Cats Jun 4, 2015 $2.99N/A (N/A)20,000 .. 50,0000%00:00 (00:00)
163 Solar Shifter EX Sep 11, 2015 $4.99N/A (N/A)0 .. 20,0000%00:00 (00:00)
164 Fly in the House Mar 6, 2015 $9.99N/A (N/A)20,000 .. 50,0000%00:00 (00:00)
165 Redemption: Saints And Sinners Nov 18, 2016 $0.49N/A (N/A)50,000 .. 100,0000%00:00 (00:00)
166 Planet of the Eyes Aug 24, 2015 $9.99N/A (N/A/66%)20,000 .. 50,0000%00:00 (00:00)
167 Spaceman Sparkles 2 May 20, 2015 $2.99N/A (N/A)0 .. 20,0000%00:00 (00:00)
168 Counter Spell Oct 5, 2015 $9.99N/A (N/A)0 .. 20,0000%00:00 (00:00)
169 Disposable Heroes Oct 1, 2015 $1.99N/A (N/A)0 .. 20,0000%00:00 (00:00)
170 Bombshell Jan 29, 2016 $34.99N/A (N/A/43%)50,000 .. 100,0000%00:00 (00:00)
171 Airport Madness: World Edition May 28, 2015 $4.99N/A (N/A)50,000 .. 100,0000%00:00 (00:00)
172 Trigger Runners Mar 3, 2016 $1.99N/A (N/A)0 .. 20,0000%00:00 (00:00)
173 Blacksea Odyssey Jun 1, 2016 $9.99N/A (N/A/74%)20,000 .. 50,0000%00:00 (00:00)
174 Uncanny Valley Apr 23, 2015 $9.99N/A (N/A/67%)50,000 .. 100,0000%00:00 (00:00)
175 Riddled Corpses Jun 2, 2015 $7.99N/A (N/A)20,000 .. 50,0000%00:00 (00:00)
176 Droid Assault Jan 9, 2013 $9.99N/A (N/A)50,000 .. 100,0000%00:00 (00:00)
177 Abyss Odyssey Jul 15, 2014 $14.99N/A (N/A/69%)200,000 .. 500,0000%00:00 (00:00)
178 Super House of Dead Ninjas Feb 18, 2013 $6.99N/A (N/A/79%)100,000 .. 200,0000%00:00 (00:00)
179 Ring Runner: Flight of the Sages Nov 19, 2013 $4.99N/A (N/A/75%)100,000 .. 200,0000%00:00 (00:00)
180 Anodyne Mar 22, 2013 $9.99N/A (N/A/75%)100,000 .. 200,0000%00:00 (00:00)
181 LEGO Indiana Jones: The Original Adventures Jul 8, 2009 $19.99N/A (N/A/78%)100,000 .. 200,0000%00:00 (00:00)
182 Fist Puncher Jun 21, 2013 $9.99N/A (N/A/73%)20,000 .. 50,0000%00:00 (00:00)
183 LEGO Indiana Jones 2: The Adventure Continues Feb 18, 2010 $19.99N/A (N/A/66%)50,000 .. 100,0000%00:00 (00:00)
184 Wanderlust Adventures Aug 10, 2015 $9.99N/A (N/A)50,000 .. 100,0000%00:00 (00:00)
185 Prince of Persia: The Forgotten Sands Jun 8, 2010 $9.99N/A (N/A/75%)100,000 .. 200,0000%00:00 (00:00)
186 Vector Thrust Jul 2, 2015 $24.99N/A (N/A/57%)100,000 .. 200,0000%00:00 (00:00)
187 Darkest of Days Sep 2009 $19.99N/A (N/A/51%)20,000 .. 50,0000%00:00 (00:00)
188 In Verbis Virtus Apr 3, 2015 $19.99N/A (N/A)100,000 .. 200,0000%00:00 (00:00)
189 A.R.E.S.: Extinction Agenda Jan 19, 2011 $4.99N/A (N/A/68%)50,000 .. 100,0000%00:00 (00:00)
190 Master Reboot Oct 29, 2013 $12.99N/A (N/A/59%)50,000 .. 100,0000%00:00 (00:00)
191 Zeno Clash 2 Apr 30, 2013 $14.99N/A (N/A)200,000 .. 500,0000%00:00 (00:00)
192 Dusty Revenge:Co-Op Edition Feb 17, 2014 $4.94N/A (N/A)50,000 .. 100,0000%00:00 (00:00)

Tags over time:

Access restricted.

This feature is only available to users with special access rights. Sorry.

If you want to proceed, you need to register or log in first and then back Steam Spy on Patreon. Look for Indie or Pro pledge.

Don't forget to use the same email as on Steam Spy!

If you've recently backed Steam Spy on Patreon, please note, that it might take around 15 minutes for your access rights to sync. In most cases you'll need to re-login on Steam Spy too.

Owners of this game also own:

Access restricted.

This feature is only available to users with special access rights. Sorry.

If you want to proceed, you need to register or log in first and then back Steam Spy on Patreon. Look for Indie or Pro pledge.

Don't forget to use the same email as on Steam Spy!

If you've recently backed Steam Spy on Patreon, please note, that it might take around 15 minutes for your access rights to sync. In most cases you'll need to re-login on Steam Spy too.

Playtime distribution:

Access restricted.

This feature is only available to users with special access rights. Sorry.

If you want to proceed, you need to register or log in first and then back Steam Spy on Patreon. Look for Indie or Pro pledge.

Don't forget to use the same email as on Steam Spy!

If you've recently backed Steam Spy on Patreon, please note, that it might take around 15 minutes for your access rights to sync. In most cases you'll need to re-login on Steam Spy too.

Playtime (2 weeks):

Access restricted.

This feature is only available to users with special access rights. Sorry.

If you want to proceed, you need to register or log in first and then back Steam Spy on Patreon. Look for Indie or Pro pledge.

Don't forget to use the same email as on Steam Spy!

If you've recently backed Steam Spy on Patreon, please note, that it might take around 15 minutes for your access rights to sync. In most cases you'll need to re-login on Steam Spy too.

User reviews:

Login required.

Please register or log in to see this information.